Joplin Regional Airport
KJLN : now visible

Airfield :











YOU CAN JOIN US ON...

 
LOGIN :

Register | Disclaimer

   EN    FR    IT 

 









Legend :    VFR   Marginal VFR   IFR   Intensive IFR   Very Intensive IFR
Visi :
Ceiling :
>= 8 km
>= 3000ft
5 to 8 km
1000 to 3000 ft
1500m to 5 km
500 to 1000 ft
800 to 1500m
200 to 500 ft
< 800m
< 200 ft
Symbols :   Thunderstorms  Fog  Heavy snow  Heavy precipitations  Wind > 20 kt







- Airport Elevation : 981 ft
- IATA code : JLN


KJLN - Joplin Regional

CURRENT METAR :
  • 190953Z AUTO 15004KT 10SM SCT070 BKN085 25/21 A2997 RMK AO2 SLP135 T02500206

EXPIRED METARs :
  • 190853Z AUTO 18006KT 10SM SCT070 BKN085 24/21 A2995 RMK AO2 SLP128 T02440206 56001
  • 190753Z AUTO 18007KT 10SM FEW075 25/21 A2995 RMK AO2 SLP128 T02500206

TAF KJLN
Valid from the 19 at 06:00 until the 20 at 06:00 UTC


190520Z 1906/2006 VRB04KT P6SM SCT060
No reported NOTAMs for that airfield.



MET'MAP, your aeronautical weather chart ! - Copyright ORBIFLY December 2007 - Disclaimer

ORBIFLY MET'MAP TEAM :

Programming & Development : Alexandra Zaïnal
Concept & Development : Baudouin d'Aumeries
Co-Development & Prog : Marc-Olivier Méhu
Technical & hardware support : Manuel Goepfert

Contact : metmap@orbifly.com




SOURCES & CREDITS :

   NOAA       Earth
Advisory